Date,TemperatureHighF,TemperatureAvgF,TemperatureLowF,DewpointHighF,DewpointAvgF,DewpointLowF,HumidityHigh,HumidityAvg,HumidityLow,PressureMaxIn,PressureMinIn,WindSpeedMaxMPH,WindSpeedAvgMPH,GustSpeedMaxMPH,PrecipitationSumIn
2013-4-1,67.4,55.3,39.9,51.5,42.2,31.1,96,64,37,29.97,29.80,28,4,28,0.00
2013-4-2,57.0,45.1,29.4,32.0,24.7,15.9,92,49,21,30.16,29.97,20,2,20,0.00
2013-4-3,57.7,43.8,28.2,27.8,22.1,15.5,86,47,21,30.33,30.15,14,1,14,0.00
2013-4-4,46.3,38.0,33.1,34.1,25.3,17.9,97,63,39,30.40,29.99,11,1,14,0.97
2013-4-5,64.3,48.4,34.9,46.8,38.0,33.5,97,72,34,30.02,29.89,12,1,12,0.32
2013-4-6,63.0,49.9,33.0,36.9,30.7,26.2,93,53,26,30.27,30.02,13,2,13,0.00
2013-4-7,71.5,56.4,38.7,46.8,41.3,29.9,90,60,39,30.24,30.05,26,5,26,0.00
2013-4-8,79.0,63.2,43.2,54.7,49.2,40.5,95,64,37,30.11,29.98,24,5,24,0.00
2013-4-9,84.7,70.6,53.3,58.1,53.9,49.4,89,59,35,30.13,29.99,19,5,20,0.00
2013-4-10,87.9,78.2,63.3,61.4,57.6,54.2,78,51,33,30.03,29.86,22,6,22,0.00
2013-4-11,81.5,72.1,63.2,63.0,59.6,57.5,83,66,47,29.90,29.71,25,6,25,0.00
2013-4-12,82.3,70.4,60.0,67.5,57.9,40.3,98,68,33,29.73,29.54,24,6,31,0.81
2013-4-13,75.6,61.2,41.6,45.8,38.7,29.9,93,47,22,29.97,29.73,19,3,19,0.00
2013-4-14,78.8,63.6,41.7,48.5,40.6,33.0,91,48,23,30.08,29.97,17,3,17,0.00
2013-4-15,67.7,59.8,53.8,58.1,54.9,47.8,96,85,49,30.21,30.01,18,1,18,0.22
2013-4-16,77.4,66.0,58.7,62.3,59.5,56.1,96,81,56,30.28,30.14,15,2,15,0.00
2013-4-17,81.8,68.8,55.1,64.9,60.0,53.5,97,76,45,30.18,30.08,8,1,8,0.00
2013-4-18,78.2,68.6,59.0,63.7,60.0,56.0,97,76,47,30.14,29.97,19,4,19,0.03
2013-4-19,77.3,68.0,56.3,67.8,63.0,48.5,96,84,71,29.97,29.63,50,8,50,0.23
2013-4-20,64.2,52.8,41.0,48.0,36.2,30.1,89,55,31,30.27,29.78,17,2,17,0.00
2013-4-21,60.4,48.6,36.6,39.9,35.4,30.2,92,62,41,30.51,30.27,15,2,15,0.00
2013-4-22,62.3,49.8,34.2,41.3,35.4,26.0,96,62,28,30.49,30.28,14,2,14,0.00
2013-4-23,68.3,56.0,47.8,52.8,45.9,40.2,86,70,48,30.31,30.08,11,1,11,0.00
2013-4-24,75.1,64.7,44.1,58.1,53.8,43.0,98,70,52,30.11,29.91,28,8,28,0.00
2013-4-25,70.2,56.4,42.9,55.4,39.4,29.9,84,56,24,30.28,30.00,14,1,14,0.00
2013-4-26,70.4,53.8,34.6,47.5,38.4,32.8,96,62,28,30.44,30.28,11,1,11,0.00
2013-4-27,70.7,58.1,45.6,54.8,49.0,43.3,94,74,43,30.35,30.24,14,1,14,0.00
2013-4-28,56.6,54.2,52.6,54.3,52.8,50.9,98,95,89,30.24,30.06,15,1,15,0.56
2013-4-29,65.8,57.1,51.8,60.0,55.1,51.3,99,93,77,30.07,29.97,8,0,8,0.29
2013-4-30,68.2,59.6,51.2,59.8,56.3,50.4,99,89,71,30.20,30.01,7,1,11,0.00